sensor_id;sensor_type;location;lat;lon;timestamp;P1;durP1;ratioP1;P2;durP2;ratioP2
64903;SDS011;51401;48.882;12.598;2024-03-02T00:00:33;35.50;;;18.83;;
64903;SDS011;51401;48.882;12.598;2024-03-02T00:02:58;37.97;;;19.27;;
64903;SDS011;51401;48.882;12.598;2024-03-02T00:05:24;34.27;;;18.83;;
64903;SDS011;51401;48.882;12.598;2024-03-02T00:07:53;37.88;;;19.38;;
64903;SDS011;51401;48.882;12.598;2024-03-02T00:10:21;36.90;;;18.48;;
64903;SDS011;51401;48.882;12.598;2024-03-02T00:12:54;35.08;;;19.05;;
64903;SDS011;51401;48.882;12.598;2024-03-02T00:18:21;35.30;;;19.08;;
64903;SDS011;51401;48.882;12.598;2024-03-02T00:20:54;37.03;;;18.40;;
64903;SDS011;51401;48.882;12.598;2024-03-02T00:25:47;42.28;;;19.13;;
64903;SDS011;51401;48.882;12.598;2024-03-02T00:28:14;32.75;;;17.95;;
64903;SDS011;51401;48.882;12.598;2024-03-02T00:33:18;37.28;;;19.83;;
64903;SDS011;51401;48.882;12.598;2024-03-02T00:35:45;36.30;;;18.23;;
64903;SDS011;51401;48.882;12.598;2024-03-02T00:38:14;39.25;;;19.27;;
64903;SDS011;51401;48.882;12.598;2024-03-02T00:40:43;38.58;;;20.13;;
64903;SDS011;51401;48.882;12.598;2024-03-02T00:43:11;34.95;;;19.38;;
64903;SDS011;51401;48.882;12.598;2024-03-02T00:45:49;41.72;;;20.23;;
64903;SDS011;51401;48.882;12.598;2024-03-02T00:48:15;46.03;;;20.08;;
64903;SDS011;51401;48.882;12.598;2024-03-02T00:50:41;36.42;;;17.38;;
64903;SDS011;51401;48.882;12.598;2024-03-02T00:53:08;45.28;;;20.42;;
64903;SDS011;51401;48.882;12.598;2024-03-02T00:55:36;40.38;;;18.88;;
64903;SDS011;51401;48.882;12.598;2024-03-02T00:58:02;39.17;;;20.25;;
64903;SDS011;51401;48.882;12.598;2024-03-02T01:00:27;43.15;;;19.92;;
64903;SDS011;51401;48.882;12.598;2024-03-02T01:02:53;43.63;;;20.43;;
64903;SDS011;51401;48.882;12.598;2024-03-02T01:05:18;42.83;;;20.52;;
64903;SDS011;51401;48.882;12.598;2024-03-02T01:07:43;43.10;;;22.42;;
64903;SDS011;51401;48.882;12.598;2024-03-02T01:10:09;40.85;;;19.33;;
64903;SDS011;51401;48.882;12.598;2024-03-02T01:12:34;39.25;;;19.77;;
64903;SDS011;51401;48.882;12.598;2024-03-02T01:15:00;44.60;;;20.48;;
64903;SDS011;51401;48.882;12.598;2024-03-02T01:17:25;40.45;;;21.05;;
64903;SDS011;51401;48.882;12.598;2024-03-02T01:19:50;43.47;;;19.67;;
64903;SDS011;51401;48.882;12.598;2024-03-02T01:22:15;37.30;;;18.70;;
64903;SDS011;51401;48.882;12.598;2024-03-02T01:24:41;42.45;;;19.58;;
64903;SDS011;51401;48.882;12.598;2024-03-02T01:27:07;40.40;;;19.75;;
64903;SDS011;51401;48.882;12.598;2024-03-02T01:29:32;41.28;;;21.73;;
64903;SDS011;51401;48.882;12.598;2024-03-02T01:31:58;47.90;;;20.40;;
64903;SDS011;51401;48.882;12.598;2024-03-02T01:34:23;40.20;;;20.23;;
64903;SDS011;51401;48.882;12.598;2024-03-02T01:36:48;38.93;;;20.50;;
64903;SDS011;51401;48.882;12.598;2024-03-02T01:39:13;44.95;;;21.08;;
64903;SDS011;51401;48.882;12.598;2024-03-02T01:41:39;39.67;;;20.50;;
64903;SDS011;51401;48.882;12.598;2024-03-02T01:44:04;41.15;;;20.83;;
64903;SDS011;51401;48.882;12.598;2024-03-02T01:46:29;45.38;;;19.80;;
64903;SDS011;51401;48.882;12.598;2024-03-02T01:48:54;39.65;;;20.50;;
64903;SDS011;51401;48.882;12.598;2024-03-02T01:51:20;34.37;;;17.83;;
64903;SDS011;51401;48.882;12.598;2024-03-02T01:53:46;40.00;;;20.25;;
64903;SDS011;51401;48.882;12.598;2024-03-02T01:56:11;40.17;;;19.73;;
64903;SDS011;51401;48.882;12.598;2024-03-02T01:58:36;35.50;;;18.63;;
64903;SDS011;51401;48.882;12.598;2024-03-02T02:01:02;41.13;;;20.60;;
64903;SDS011;51401;48.882;12.598;2024-03-02T02:03:27;41.70;;;21.42;;
64903;SDS011;51401;48.882;12.598;2024-03-02T02:05:53;35.60;;;18.42;;
64903;SDS011;51401;48.882;12.598;2024-03-02T02:08:18;40.65;;;20.40;;
64903;SDS011;51401;48.882;12.598;2024-03-02T02:10:43;40.58;;;20.08;;
64903;SDS011;51401;48.882;12.598;2024-03-02T02:13:08;41.80;;;20.08;;
64903;SDS011;51401;48.882;12.598;2024-03-02T02:15:34;40.33;;;21.05;;
64903;SDS011;51401;48.882;12.598;2024-03-02T02:18:01;41.20;;;21.15;;
64903;SDS011;51401;48.882;12.598;2024-03-02T02:20:26;43.30;;;20.45;;
64903;SDS011;51401;48.882;12.598;2024-03-02T02:22:53;40.38;;;22.58;;
64903;SDS011;51401;48.882;12.598;2024-03-02T02:25:19;38.30;;;18.55;;
64903;SDS011;51401;48.882;12.598;2024-03-02T02:27:45;42.95;;;20.95;;
64903;SDS011;51401;48.882;12.598;2024-03-02T02:30:11;47.97;;;23.67;;
64903;SDS011;51401;48.882;12.598;2024-03-02T02:32:37;50.38;;;22.05;;
64903;SDS011;51401;48.882;12.598;2024-03-02T02:35:02;46.93;;;21.43;;
64903;SDS011;51401;48.882;12.598;2024-03-02T02:37:28;47.78;;;22.15;;
64903;SDS011;51401;48.882;12.598;2024-03-02T02:39:53;41.55;;;21.42;;
64903;SDS011;51401;48.882;12.598;2024-03-02T02:42:19;45.30;;;21.40;;
64903;SDS011;51401;48.882;12.598;2024-03-02T02:44:44;46.35;;;22.42;;
64903;SDS011;51401;48.882;12.598;2024-03-02T02:47:09;43.72;;;21.80;;
64903;SDS011;51401;48.882;12.598;2024-03-02T02:49:34;43.33;;;22.57;;
64903;SDS011;51401;48.882;12.598;2024-03-02T02:51:59;40.43;;;21.00;;
64903;SDS011;51401;48.882;12.598;2024-03-02T02:54:25;44.73;;;22.23;;
64903;SDS011;51401;48.882;12.598;2024-03-02T02:56:50;51.90;;;22.63;;
64903;SDS011;51401;48.882;12.598;2024-03-02T02:59:15;46.63;;;22.30;;
64903;SDS011;51401;48.882;12.598;2024-03-02T03:01:41;44.38;;;22.15;;
64903;SDS011;51401;48.882;12.598;2024-03-02T03:04:06;45.30;;;21.70;;
64903;SDS011;51401;48.882;12.598;2024-03-02T03:06:31;42.13;;;22.25;;
64903;SDS011;51401;48.882;12.598;2024-03-02T03:08:57;45.93;;;22.67;;
64903;SDS011;51401;48.882;12.598;2024-03-02T03:11:22;45.05;;;21.20;;
64903;SDS011;51401;48.882;12.598;2024-03-02T03:13:49;44.22;;;22.20;;
64903;SDS011;51401;48.882;12.598;2024-03-02T03:16:15;44.08;;;22.13;;
64903;SDS011;51401;48.882;12.598;2024-03-02T03:18:40;49.83;;;24.98;;
64903;SDS011;51401;48.882;12.598;2024-03-02T03:21:05;45.00;;;22.02;;
64903;SDS011;51401;48.882;12.598;2024-03-02T03:23:30;44.13;;;20.07;;
64903;SDS011;51401;48.882;12.598;2024-03-02T03:25:56;46.00;;;22.30;;
64903;SDS011;51401;48.882;12.598;2024-03-02T03:28:21;43.07;;;21.53;;
64903;SDS011;51401;48.882;12.598;2024-03-02T03:30:46;46.78;;;21.65;;
64903;SDS011;51401;48.882;12.598;2024-03-02T03:33:11;47.15;;;23.58;;
64903;SDS011;51401;48.882;12.598;2024-03-02T03:35:37;47.47;;;22.60;;
64903;SDS011;51401;48.882;12.598;2024-03-02T03:38:02;52.97;;;24.27;;
64903;SDS011;51401;48.882;12.598;2024-03-02T03:40:28;47.67;;;23.17;;
64903;SDS011;51401;48.882;12.598;2024-03-02T03:42:53;46.60;;;23.52;;
64903;SDS011;51401;48.882;12.598;2024-03-02T03:45:19;52.20;;;24.02;;
64903;SDS011;51401;48.882;12.598;2024-03-02T03:47:45;45.50;;;22.77;;
64903;SDS011;51401;48.882;12.598;2024-03-02T03:50:10;48.37;;;23.23;;
64903;SDS011;51401;48.882;12.598;2024-03-02T03:52:35;47.20;;;22.17;;
64903;SDS011;51401;48.882;12.598;2024-03-02T03:55:01;48.42;;;23.60;;
64903;SDS011;51401;48.882;12.598;2024-03-02T03:57:26;46.90;;;22.00;;
64903;SDS011;51401;48.882;12.598;2024-03-02T03:59:52;41.13;;;22.85;;
64903;SDS011;51401;48.882;12.598;2024-03-02T04:02:18;45.35;;;22.52;;
64903;SDS011;51401;48.882;12.598;2024-03-02T04:04:43;51.78;;;24.92;;
64903;SDS011;51401;48.882;12.598;2024-03-02T04:07:08;48.20;;;22.63;;
64903;SDS011;51401;48.882;12.598;2024-03-02T04:09:34;50.38;;;23.00;;
64903;SDS011;51401;48.882;12.598;2024-03-02T04:11:59;46.95;;;23.60;;
64903;SDS011;51401;48.882;12.598;2024-03-02T04:14:24;50.25;;;23.58;;
64903;SDS011;51401;48.882;12.598;2024-03-02T04:16:49;48.95;;;24.02;;
64903;SDS011;51401;48.882;12.598;2024-03-02T04:19:15;51.27;;;24.83;;
64903;SDS011;51401;48.882;12.598;2024-03-02T04:21:40;53.10;;;25.70;;
64903;SDS011;51401;48.882;12.598;2024-03-02T04:24:05;49.05;;;22.35;;
64903;SDS011;51401;48.882;12.598;2024-03-02T04:26:30;52.33;;;22.87;;
64903;SDS011;51401;48.882;12.598;2024-03-02T04:28:56;51.90;;;24.45;;
64903;SDS011;51401;48.882;12.598;2024-03-02T04:31:21;50.47;;;23.15;;
64903;SDS011;51401;48.882;12.598;2024-03-02T04:33:46;50.58;;;23.92;;
64903;SDS011;51401;48.882;12.598;2024-03-02T04:36:11;49.75;;;23.13;;
64903;SDS011;51401;48.882;12.598;2024-03-02T04:38:39;55.97;;;26.05;;
64903;SDS011;51401;48.882;12.598;2024-03-02T04:41:05;51.05;;;23.85;;
64903;SDS011;51401;48.882;12.598;2024-03-02T04:43:32;52.20;;;24.10;;
64903;SDS011;51401;48.882;12.598;2024-03-02T04:46:00;51.17;;;23.60;;
64903;SDS011;51401;48.882;12.598;2024-03-02T04:48:26;49.67;;;23.73;;
64903;SDS011;51401;48.882;12.598;2024-03-02T04:50:51;54.10;;;24.13;;
64903;SDS011;51401;48.882;12.598;2024-03-02T04:53:16;50.20;;;23.25;;
64903;SDS011;51401;48.882;12.598;2024-03-02T04:55:42;51.78;;;24.48;;
64903;SDS011;51401;48.882;12.598;2024-03-02T04:58:07;50.65;;;23.08;;
64903;SDS011;51401;48.882;12.598;2024-03-02T05:00:33;46.92;;;23.05;;
64903;SDS011;51401;48.882;12.598;2024-03-02T05:02:59;53.60;;;24.52;;
64903;SDS011;51401;48.882;12.598;2024-03-02T05:05:24;53.72;;;23.48;;
64903;SDS011;51401;48.882;12.598;2024-03-02T05:07:49;50.83;;;23.57;;
64903;SDS011;51401;48.882;12.598;2024-03-02T05:10:15;52.65;;;23.35;;
64903;SDS011;51401;48.882;12.598;2024-03-02T05:12:40;47.88;;;23.65;;
64903;SDS011;51401;48.882;12.598;2024-03-02T05:15:09;54.25;;;23.30;;
64903;SDS011;51401;48.882;12.598;2024-03-02T05:17:36;46.60;;;22.15;;
64903;SDS011;51401;48.882;12.598;2024-03-02T05:20:02;53.72;;;23.27;;
64903;SDS011;51401;48.882;12.598;2024-03-02T05:22:29;52.55;;;22.17;;
64903;SDS011;51401;48.882;12.598;2024-03-02T05:24:54;52.30;;;24.03;;
64903;SDS011;51401;48.882;12.598;2024-03-02T05:27:19;53.75;;;25.40;;
64903;SDS011;51401;48.882;12.598;2024-03-02T05:29:44;54.87;;;26.87;;
64903;SDS011;51401;48.882;12.598;2024-03-02T05:32:10;54.47;;;26.63;;
64903;SDS011;51401;48.882;12.598;2024-03-02T05:34:35;56.97;;;27.35;;
64903;SDS011;51401;48.882;12.598;2024-03-02T05:37:00;62.60;;;27.17;;
64903;SDS011;51401;48.882;12.598;2024-03-02T05:39:26;57.35;;;26.85;;
64903;SDS011;51401;48.882;12.598;2024-03-02T05:41:51;62.20;;;26.02;;
64903;SDS011;51401;48.882;12.598;2024-03-02T05:44:17;59.00;;;26.67;;
64903;SDS011;51401;48.882;12.598;2024-03-02T05:46:43;59.50;;;27.33;;
64903;SDS011;51401;48.882;12.598;2024-03-02T05:49:08;60.50;;;26.10;;
64903;SDS011;51401;48.882;12.598;2024-03-02T05:51:34;60.45;;;26.35;;
64903;SDS011;51401;48.882;12.598;2024-03-02T05:54:00;60.08;;;27.13;;
64903;SDS011;51401;48.882;12.598;2024-03-02T05:56:28;56.57;;;26.03;;
64903;SDS011;51401;48.882;12.598;2024-03-02T05:58:53;64.53;;;27.65;;
64903;SDS011;51401;48.882;12.598;2024-03-02T06:01:27;64.40;;;26.15;;
64903;SDS011;51401;48.882;12.598;2024-03-02T06:03:56;64.75;;;27.98;;
64903;SDS011;51401;48.882;12.598;2024-03-02T06:06:22;63.53;;;27.42;;
64903;SDS011;51401;48.882;12.598;2024-03-02T06:08:48;66.25;;;28.00;;
64903;SDS011;51401;48.882;12.598;2024-03-02T06:11:13;60.40;;;26.27;;
64903;SDS011;51401;48.882;12.598;2024-03-02T06:13:38;63.83;;;26.83;;
64903;SDS011;51401;48.882;12.598;2024-03-02T06:16:03;61.50;;;27.13;;
64903;SDS011;51401;48.882;12.598;2024-03-02T06:18:29;57.00;;;26.13;;
64903;SDS011;51401;48.882;12.598;2024-03-02T06:20:54;56.90;;;27.15;;
64903;SDS011;51401;48.882;12.598;2024-03-02T06:23:20;55.85;;;25.33;;
64903;SDS011;51401;48.882;12.598;2024-03-02T06:25:45;61.20;;;28.52;;
64903;SDS011;51401;48.882;12.598;2024-03-02T06:28:10;66.38;;;28.27;;
64903;SDS011;51401;48.882;12.598;2024-03-02T06:30:36;59.07;;;26.83;;
64903;SDS011;51401;48.882;12.598;2024-03-02T06:33:01;59.75;;;24.30;;
64903;SDS011;51401;48.882;12.598;2024-03-02T06:35:28;67.47;;;27.88;;
64903;SDS011;51401;48.882;12.598;2024-03-02T06:37:53;59.85;;;25.40;;
64903;SDS011;51401;48.882;12.598;2024-03-02T06:40:19;56.20;;;25.30;;
64903;SDS011;51401;48.882;12.598;2024-03-02T06:42:44;60.40;;;25.85;;
64903;SDS011;51401;48.882;12.598;2024-03-02T06:45:09;59.40;;;26.05;;
64903;SDS011;51401;48.882;12.598;2024-03-02T06:47:35;62.22;;;26.67;;
64903;SDS011;51401;48.882;12.598;2024-03-02T06:50:00;66.78;;;27.17;;
64903;SDS011;51401;48.882;12.598;2024-03-02T06:52:25;55.78;;;25.33;;
64903;SDS011;51401;48.882;12.598;2024-03-02T06:54:50;55.40;;;24.60;;
64903;SDS011;51401;48.882;12.598;2024-03-02T06:57:16;62.90;;;26.80;;
64903;SDS011;51401;48.882;12.598;2024-03-02T06:59:42;56.33;;;26.08;;
64903;SDS011;51401;48.882;12.598;2024-03-02T07:02:07;51.28;;;24.77;;
64903;SDS011;51401;48.882;12.598;2024-03-02T07:04:33;55.38;;;24.70;;
64903;SDS011;51401;48.882;12.598;2024-03-02T07:06:59;53.97;;;23.13;;
64903;SDS011;51401;48.882;12.598;2024-03-02T07:09:24;56.90;;;25.73;;
64903;SDS011;51401;48.882;12.598;2024-03-02T07:11:49;54.50;;;23.85;;
64903;SDS011;51401;48.882;12.598;2024-03-02T07:14:15;51.47;;;23.83;;
64903;SDS011;51401;48.882;12.598;2024-03-02T07:16:40;53.40;;;23.47;;
64903;SDS011;51401;48.882;12.598;2024-03-02T07:19:05;53.05;;;23.70;;
64903;SDS011;51401;48.882;12.598;2024-03-02T07:21:31;51.80;;;23.05;;
64903;SDS011;51401;48.882;12.598;2024-03-02T07:23:57;55.47;;;24.90;;
64903;SDS011;51401;48.882;12.598;2024-03-02T07:26:23;48.95;;;24.25;;
64903;SDS011;51401;48.882;12.598;2024-03-02T07:28:49;50.53;;;24.27;;
64903;SDS011;51401;48.882;12.598;2024-03-02T07:31:14;58.97;;;25.67;;
64903;SDS011;51401;48.882;12.598;2024-03-02T07:33:40;53.35;;;23.25;;
64903;SDS011;51401;48.882;12.598;2024-03-02T07:36:07;52.22;;;24.52;;
64903;SDS011;51401;48.882;12.598;2024-03-02T07:38:32;48.45;;;24.92;;
64903;SDS011;51401;48.882;12.598;2024-03-02T07:41:00;48.55;;;22.45;;
64903;SDS011;51401;48.882;12.598;2024-03-02T07:43:26;45.95;;;22.73;;
64903;SDS011;51401;48.882;12.598;2024-03-02T07:45:51;45.42;;;22.42;;
64903;SDS011;51401;48.882;12.598;2024-03-02T07:48:17;47.20;;;23.30;;
64903;SDS011;51401;48.882;12.598;2024-03-02T07:50:42;51.30;;;22.27;;
64903;SDS011;51401;48.882;12.598;2024-03-02T07:53:08;47.33;;;22.33;;
64903;SDS011;51401;48.882;12.598;2024-03-02T07:55:33;43.50;;;21.38;;
64903;SDS011;51401;48.882;12.598;2024-03-02T07:58:00;49.00;;;22.17;;
64903;SDS011;51401;48.882;12.598;2024-03-02T08:00:26;53.85;;;23.83;;
64903;SDS011;51401;48.882;12.598;2024-03-02T08:02:52;45.92;;;22.15;;
64903;SDS011;51401;48.882;12.598;2024-03-02T08:05:17;45.83;;;23.10;;
64903;SDS011;51401;48.882;12.598;2024-03-02T08:07:46;47.00;;;22.25;;
64903;SDS011;51401;48.882;12.598;2024-03-02T08:10:12;49.75;;;22.80;;
64903;SDS011;51401;48.882;12.598;2024-03-02T08:12:37;48.42;;;23.55;;
64903;SDS011;51401;48.882;12.598;2024-03-02T08:15:03;50.15;;;22.63;;
64903;SDS011;51401;48.882;12.598;2024-03-02T08:17:29;47.97;;;23.35;;
64903;SDS011;51401;48.882;12.598;2024-03-02T08:19:55;43.55;;;22.60;;
64903;SDS011;51401;48.882;12.598;2024-03-02T08:22:20;44.63;;;22.90;;
64903;SDS011;51401;48.882;12.598;2024-03-02T08:24:46;50.13;;;24.38;;
64903;SDS011;51401;48.882;12.598;2024-03-02T08:27:11;43.60;;;22.40;;
64903;SDS011;51401;48.882;12.598;2024-03-02T08:29:37;43.55;;;22.95;;
64903;SDS011;51401;48.882;12.598;2024-03-02T08:32:02;50.58;;;23.20;;
64903;SDS011;51401;48.882;12.598;2024-03-02T08:34:28;40.70;;;21.25;;
64903;SDS011;51401;48.882;12.598;2024-03-02T08:36:53;41.87;;;20.40;;
64903;SDS011;51401;48.882;12.598;2024-03-02T08:39:18;42.33;;;21.77;;
64903;SDS011;51401;48.882;12.598;2024-03-02T08:41:44;42.50;;;21.52;;
64903;SDS011;51401;48.882;12.598;2024-03-02T08:44:10;40.95;;;22.05;;
64903;SDS011;51401;48.882;12.598;2024-03-02T08:46:36;43.45;;;20.33;;
64903;SDS011;51401;48.882;12.598;2024-03-02T08:49:02;44.88;;;22.27;;
64903;SDS011;51401;48.882;12.598;2024-03-02T08:51:28;45.90;;;21.65;;
64903;SDS011;51401;48.882;12.598;2024-03-02T08:53:53;41.17;;;20.73;;
64903;SDS011;51401;48.882;12.598;2024-03-02T08:56:18;40.30;;;21.27;;
64903;SDS011;51401;48.882;12.598;2024-03-02T08:58:45;46.10;;;21.77;;
64903;SDS011;51401;48.882;12.598;2024-03-02T09:01:10;37.50;;;20.20;;
64903;SDS011;51401;48.882;12.598;2024-03-02T09:03:36;41.85;;;21.42;;
64903;SDS011;51401;48.882;12.598;2024-03-02T09:06:02;38.28;;;20.08;;
64903;SDS011;51401;48.882;12.598;2024-03-02T09:08:28;35.65;;;19.13;;
64903;SDS011;51401;48.882;12.598;2024-03-02T09:10:53;36.63;;;19.53;;
64903;SDS011;51401;48.882;12.598;2024-03-02T09:13:18;34.90;;;19.50;;
64903;SDS011;51401;48.882;12.598;2024-03-02T09:15:44;32.38;;;17.08;;
64903;SDS011;51401;48.882;12.598;2024-03-02T09:18:10;34.40;;;18.58;;
64903;SDS011;51401;48.882;12.598;2024-03-02T09:20:35;30.75;;;17.02;;
64903;SDS011;51401;48.882;12.598;2024-03-02T09:23:00;30.58;;;17.80;;
64903;SDS011;51401;48.882;12.598;2024-03-02T09:25:26;32.25;;;17.48;;
64903;SDS011;51401;48.882;12.598;2024-03-02T09:27:51;28.98;;;17.60;;
64903;SDS011;51401;48.882;12.598;2024-03-02T09:30:16;32.78;;;17.50;;
64903;SDS011;51401;48.882;12.598;2024-03-02T09:32:42;32.72;;;17.83;;
64903;SDS011;51401;48.882;12.598;2024-03-02T09:35:07;30.08;;;17.15;;
64903;SDS011;51401;48.882;12.598;2024-03-02T09:37:34;29.38;;;16.38;;
64903;SDS011;51401;48.882;12.598;2024-03-02T09:39:59;28.42;;;15.18;;
64903;SDS011;51401;48.882;12.598;2024-03-02T09:42:25;26.50;;;14.48;;
64903;SDS011;51401;48.882;12.598;2024-03-02T09:44:51;23.70;;;13.35;;
64903;SDS011;51401;48.882;12.598;2024-03-02T09:47:17;21.38;;;13.23;;
64903;SDS011;51401;48.882;12.598;2024-03-02T09:49:42;23.70;;;12.98;;
64903;SDS011;51401;48.882;12.598;2024-03-02T09:52:08;22.90;;;13.35;;
64903;SDS011;51401;48.882;12.598;2024-03-02T09:54:35;21.23;;;12.98;;
64903;SDS011;51401;48.882;12.598;2024-03-02T09:57:00;24.58;;;13.68;;
64903;SDS011;51401;48.882;12.598;2024-03-02T09:59:27;23.52;;;12.80;;
64903;SDS011;51401;48.882;12.598;2024-03-02T10:01:57;25.15;;;13.75;;
64903;SDS011;51401;48.882;12.598;2024-03-02T10:04:27;20.88;;;11.65;;
64903;SDS011;51401;48.882;12.598;2024-03-02T10:09:35;20.92;;;12.85;;
64903;SDS011;51401;48.882;12.598;2024-03-02T10:12:04;24.17;;;13.60;;
64903;SDS011;51401;48.882;12.598;2024-03-02T10:14:30;23.90;;;12.63;;
64903;SDS011;51401;48.882;12.598;2024-03-02T10:17:01;21.50;;;12.98;;
64903;SDS011;51401;48.882;12.598;2024-03-02T10:19:28;22.48;;;12.95;;
64903;SDS011;51401;48.882;12.598;2024-03-02T10:21:58;24.75;;;13.95;;
64903;SDS011;51401;48.882;12.598;2024-03-02T10:24:24;24.27;;;13.15;;
64903;SDS011;51401;48.882;12.598;2024-03-02T10:26:50;21.55;;;13.07;;
64903;SDS011;51401;48.882;12.598;2024-03-02T10:29:15;19.80;;;12.25;;
64903;SDS011;51401;48.882;12.598;2024-03-02T10:31:42;22.95;;;11.85;;
64903;SDS011;51401;48.882;12.598;2024-03-02T10:34:09;20.38;;;12.55;;
64903;SDS011;51401;48.882;12.598;2024-03-02T10:36:35;21.13;;;12.25;;
64903;SDS011;51401;48.882;12.598;2024-03-02T10:39:02;19.83;;;11.95;;
64903;SDS011;51401;48.882;12.598;2024-03-02T10:41:32;23.75;;;14.18;;
64903;SDS011;51401;48.882;12.598;2024-03-02T10:44:03;19.67;;;11.18;;
64903;SDS011;51401;48.882;12.598;2024-03-02T10:46:29;19.58;;;12.02;;
64903;SDS011;51401;48.882;12.598;2024-03-02T10:48:57;19.30;;;11.32;;
64903;SDS011;51401;48.882;12.598;2024-03-02T10:51:27;20.02;;;11.68;;
64903;SDS011;51401;48.882;12.598;2024-03-02T10:53:56;20.10;;;11.55;;
64903;SDS011;51401;48.882;12.598;2024-03-02T10:57:05;21.02;;;12.93;;
64903;SDS011;51401;48.882;12.598;2024-03-02T10:59:27;19.95;;;11.52;;
64903;SDS011;51401;48.882;12.598;2024-03-02T11:01:57;19.50;;;11.27;;
64903;SDS011;51401;48.882;12.598;2024-03-02T11:04:25;20.65;;;11.82;;
64903;SDS011;51401;48.882;12.598;2024-03-02T11:06:51;18.67;;;11.93;;
64903;SDS011;51401;48.882;12.598;2024-03-02T11:09:21;20.27;;;10.95;;
64903;SDS011;51401;48.882;12.598;2024-03-02T11:11:49;20.83;;;11.57;;
64903;SDS011;51401;48.882;12.598;2024-03-02T11:14:23;20.73;;;11.57;;
64903;SDS011;51401;48.882;12.598;2024-03-02T11:16:50;24.25;;;13.18;;
64903;SDS011;51401;48.882;12.598;2024-03-02T11:19:16;24.40;;;13.85;;
64903;SDS011;51401;48.882;12.598;2024-03-02T11:21:42;24.05;;;12.55;;
64903;SDS011;51401;48.882;12.598;2024-03-02T11:26:58;25.15;;;12.27;;
64903;SDS011;51401;48.882;12.598;2024-03-02T11:32:02;22.20;;;12.10;;
64903;SDS011;51401;48.882;12.598;2024-03-02T11:34:28;26.92;;;16.13;;
64903;SDS011;51401;48.882;12.598;2024-03-02T11:36:55;18.85;;;12.30;;
64903;SDS011;51401;48.882;12.598;2024-03-02T11:39:21;20.92;;;12.80;;
64903;SDS011;51401;48.882;12.598;2024-03-02T11:41:47;21.10;;;12.85;;
64903;SDS011;51401;48.882;12.598;2024-03-02T11:44:12;23.60;;;12.10;;
64903;SDS011;51401;48.882;12.598;2024-03-02T11:46:40;21.60;;;12.10;;
64903;SDS011;51401;48.882;12.598;2024-03-02T11:49:05;24.33;;;11.00;;
64903;SDS011;51401;48.882;12.598;2024-03-02T11:51:32;20.65;;;12.45;;
64903;SDS011;51401;48.882;12.598;2024-03-02T11:53:59;21.15;;;12.70;;
64903;SDS011;51401;48.882;12.598;2024-03-02T11:56:25;23.73;;;12.02;;
64903;SDS011;51401;48.882;12.598;2024-03-02T11:58:53;20.50;;;12.23;;
64903;SDS011;51401;48.882;12.598;2024-03-02T12:01:18;21.77;;;12.20;;
64903;SDS011;51401;48.882;12.598;2024-03-02T12:03:44;21.00;;;12.68;;
64903;SDS011;51401;48.882;12.598;2024-03-02T12:06:10;24.38;;;14.73;;
64903;SDS011;51401;48.882;12.598;2024-03-02T12:08:38;19.88;;;12.45;;
64903;SDS011;51401;48.882;12.598;2024-03-02T12:11:03;21.33;;;12.80;;
64903;SDS011;51401;48.882;12.598;2024-03-02T12:13:31;23.15;;;13.45;;
64903;SDS011;51401;48.882;12.598;2024-03-02T12:15:56;21.60;;;11.85;;
64903;SDS011;51401;48.882;12.598;2024-03-02T12:18:22;20.85;;;12.05;;
64903;SDS011;51401;48.882;12.598;2024-03-02T12:20:48;21.38;;;12.90;;
64903;SDS011;51401;48.882;12.598;2024-03-02T12:23:14;20.58;;;12.30;;
64903;SDS011;51401;48.882;12.598;2024-03-02T12:25:40;21.67;;;13.30;;
64903;SDS011;51401;48.882;12.598;2024-03-02T12:28:06;20.10;;;11.95;;
64903;SDS011;51401;48.882;12.598;2024-03-02T12:30:32;21.00;;;12.20;;
64903;SDS011;51401;48.882;12.598;2024-03-02T12:33:00;20.42;;;12.38;;
64903;SDS011;51401;48.882;12.598;2024-03-02T12:35:25;21.60;;;12.43;;
64903;SDS011;51401;48.882;12.598;2024-03-02T12:37:51;23.50;;;13.57;;
64903;SDS011;51401;48.882;12.598;2024-03-02T12:40:18;23.77;;;12.25;;
64903;SDS011;51401;48.882;12.598;2024-03-02T12:42:44;22.38;;;13.35;;
64903;SDS011;51401;48.882;12.598;2024-03-02T12:45:10;23.15;;;13.48;;
64903;SDS011;51401;48.882;12.598;2024-03-02T12:47:37;22.00;;;12.10;;
64903;SDS011;51401;48.882;12.598;2024-03-02T12:50:05;22.23;;;12.35;;
64903;SDS011;51401;48.882;12.598;2024-03-02T12:52:31;18.42;;;11.23;;
64903;SDS011;51401;48.882;12.598;2024-03-02T12:54:58;20.50;;;13.10;;
64903;SDS011;51401;48.882;12.598;2024-03-02T12:57:31;18.88;;;11.98;;
64903;SDS011;51401;48.882;12.598;2024-03-02T13:00:00;21.50;;;13.43;;
64903;SDS011;51401;48.882;12.598;2024-03-02T13:02:34;22.55;;;13.65;;
64903;SDS011;51401;48.882;12.598;2024-03-02T13:04:59;21.05;;;12.55;;
64903;SDS011;51401;48.882;12.598;2024-03-02T13:07:25;22.30;;;12.90;;
64903;SDS011;51401;48.882;12.598;2024-03-02T13:09:51;21.40;;;11.95;;
64903;SDS011;51401;48.882;12.598;2024-03-02T13:12:17;20.13;;;11.07;;
64903;SDS011;51401;48.882;12.598;2024-03-02T13:14:42;21.15;;;12.90;;
64903;SDS011;51401;48.882;12.598;2024-03-02T13:17:08;20.40;;;12.40;;
64903;SDS011;51401;48.882;12.598;2024-03-02T13:19:34;20.15;;;11.60;;
64903;SDS011;51401;48.882;12.598;2024-03-02T13:21:59;20.17;;;12.07;;
64903;SDS011;51401;48.882;12.598;2024-03-02T13:24:27;18.05;;;11.43;;
64903;SDS011;51401;48.882;12.598;2024-03-02T13:26:54;18.00;;;10.52;;
64903;SDS011;51401;48.882;12.598;2024-03-02T13:29:22;19.50;;;11.40;;
64903;SDS011;51401;48.882;12.598;2024-03-02T13:31:47;19.02;;;11.40;;
64903;SDS011;51401;48.882;12.598;2024-03-02T13:34:13;19.30;;;11.60;;
64903;SDS011;51401;48.882;12.598;2024-03-02T13:36:38;17.83;;;11.52;;
64903;SDS011;51401;48.882;12.598;2024-03-02T13:39:04;15.50;;;10.83;;
64903;SDS011;51401;48.882;12.598;2024-03-02T13:41:31;17.95;;;11.70;;
64903;SDS011;51401;48.882;12.598;2024-03-02T13:43:57;18.75;;;12.20;;
64903;SDS011;51401;48.882;12.598;2024-03-02T13:46:22;17.20;;;11.27;;
64903;SDS011;51401;48.882;12.598;2024-03-02T13:48:47;18.80;;;10.75;;
64903;SDS011;51401;48.882;12.598;2024-03-02T13:51:13;17.17;;;10.53;;
64903;SDS011;51401;48.882;12.598;2024-03-02T13:53:38;16.80;;;10.15;;
64903;SDS011;51401;48.882;12.598;2024-03-02T13:56:03;18.57;;;11.10;;
64903;SDS011;51401;48.882;12.598;2024-03-02T13:58:29;16.88;;;10.95;;
64903;SDS011;51401;48.882;12.598;2024-03-02T14:00:55;16.35;;;9.93;;
64903;SDS011;51401;48.882;12.598;2024-03-02T14:03:21;16.05;;;10.07;;
64903;SDS011;51401;48.882;12.598;2024-03-02T14:05:46;14.60;;;9.38;;
64903;SDS011;51401;48.882;12.598;2024-03-02T14:08:13;26.13;;;15.23;;
64903;SDS011;51401;48.882;12.598;2024-03-02T14:10:39;15.43;;;10.20;;
64903;SDS011;51401;48.882;12.598;2024-03-02T14:13:04;15.20;;;10.47;;
64903;SDS011;51401;48.882;12.598;2024-03-02T14:15:30;16.27;;;11.02;;
64903;SDS011;51401;48.882;12.598;2024-03-02T14:17:56;13.98;;;8.90;;